createdAt,value
2023-02-25T19:53:15.897Z,100312.09
2023-02-25T19:55:43.665Z,100311.31
2023-02-25T19:58:10.033Z,100309.28
2023-02-25T20:02:12.593Z,100332.03
2023-02-25T20:04:39.254Z,100321.69
2023-02-25T20:07:05.752Z,100339.59
2023-02-25T20:09:32.161Z,100335.25
2023-02-25T20:11:58.536Z,100335.25
2023-02-25T20:14:27.876Z,100342.31
2023-02-25T20:16:59.422Z,100349.47
2023-02-25T20:19:27.887Z,100350.38
2023-02-25T20:21:54.263Z,100353.88
2023-02-25T20:24:20.609Z,100354.84
2023-02-25T20:26:47.118Z,100356.66
2023-02-25T20:29:14.240Z,100360.22
2023-02-25T20:31:40.873Z,100362.88
2023-02-25T20:34:12.432Z,100373.53
2023-02-25T20:36:45.468Z,100362.91
2023-02-25T20:39:36.420Z,100372.69
2023-02-25T20:42:05.045Z,100379.88
2023-02-25T20:44:31.678Z,100384.38
2023-02-25T20:46:58.479Z,100388.81
2023-02-25T20:49:27.693Z,100394.97
2023-02-25T20:51:54.437Z,100391.41
2023-02-25T20:54:21.074Z,100394.97
2023-02-25T20:56:48.854Z,100395.91
2023-02-25T20:59:17.009Z,100388.84
2023-02-25T21:01:44.554Z,100397.78
2023-02-25T21:04:11.269Z,100411.09
2023-02-25T21:06:38.153Z,100410.25
2023-02-25T21:09:06.024Z,100416.50
2023-02-25T21:11:32.837Z,100418.31
2023-02-25T21:13:59.233Z,100414.81
2023-02-25T21:16:26.130Z,100424.59
2023-02-25T21:18:52.946Z,100421.09
2023-02-25T21:21:21.242Z,100416.66
2023-02-25T21:23:49.285Z,100422.91
2023-02-25T21:26:16.033Z,100425.56
2023-02-25T21:28:42.458Z,100440.69
2023-02-25T21:31:11.387Z,100434.50
2023-02-25T21:33:39.126Z,100433.59
2023-02-25T21:36:07.106Z,100430.06
2023-02-25T21:38:33.623Z,100441.63
2023-02-25T21:41:06.803Z,100440.66
2023-02-25T21:43:33.245Z,100438.94
2023-02-25T21:46:02.537Z,100450.47
2023-02-25T21:48:30.453Z,100446.97
2023-02-25T21:50:56.982Z,100451.41
2023-02-25T21:53:23.452Z,100450.50
2023-02-25T21:55:49.806Z,100455.84
2023-02-25T21:58:16.217Z,100458.50
2023-02-25T22:00:43.404Z,100462.94
2023-02-25T22:03:10.593Z,100462.06
2023-02-25T22:05:38.429Z,100463.81
2023-02-25T22:08:06.377Z,100464.72
2023-02-25T22:10:36.248Z,100469.19
2023-02-25T22:13:02.978Z,100470.06
2023-02-25T22:15:29.705Z,100478.97
2023-02-25T22:17:56.120Z,100480.75
2023-02-25T22:20:22.505Z,100482.53
